Time;durP1;ratioP1;P1;durP2;ratioP2;P2;SDS_P1;SDS_P2;PMS_P1;PMS_P2;Temp;Humidity;BMP_temperature;BMP_pressure;BME280_temperature;BME280_humidity;BME280_pressure;Samples;Min_cycle;Max_cycle;Signal;HPM_P1;HPM_P2
2021/12/10 00:02:01;;;;;;;;;1.33;0.00;;;;;8.23;75.17;99100.13;5032192;28;45337;-74
2021/12/10 00:04:29;;;;;;;;;0.00;0.00;;;;;8.19;74.56;99082.63;5017683;28;45341;-74
2021/12/10 00:06:56;;;;;;;;;0.00;0.00;;;;;8.32;74.26;99086.94;5017041;28;47602;-74
2021/12/10 00:09:24;;;;;;;;;0.00;0.00;;;;;8.30;74.17;99090.44;5017465;28;45812;-73
2021/12/10 00:11:53;;;;;;;;;0.00;0.00;;;;;8.31;74.59;99081.66;5017714;28;45317;-73
2021/12/10 00:14:19;;;;;;;;;0.00;0.00;;;;;8.32;74.56;99094.81;5024198;28;45289;-73
2021/12/10 00:16:44;;;;;;;;;0.00;0.00;;;;;8.19;74.08;99034.44;5036820;28;47590;-73
2021/12/10 00:19:31;;;;;;;;;0.00;0.00;;;;;8.16;74.64;99021.34;5033043;28;45368;-73
2021/12/10 00:21:57;;;;;;;;;0.00;0.00;;;;;8.35;74.17;99034.28;5017273;28;45452;-73
2021/12/10 00:24:26;;;;;;;;;1.00;0.00;;;;;8.22;74.27;98992.34;5017063;28;46857;-73
2021/12/10 00:26:51;;;;;;;;;0.00;0.00;;;;;8.35;73.90;98997.47;5028862;28;46679;-74
2021/12/10 00:29:18;;;;;;;;;0.00;0.00;;;;;8.34;74.11;98972.06;5028634;28;45301;-74
2021/12/10 00:31:48;;;;;;;;;0.00;0.00;;;;;8.34;73.82;98968.56;5037150;28;45376;-74
2021/12/10 00:34:22;;;;;;;;;0.00;0.00;;;;;8.36;74.24;98979.97;5037021;28;45385;-74
2021/12/10 00:36:47;;;;;;;;;0.00;0.00;;;;;8.22;74.06;98981.84;5023174;28;47222;-74
2021/12/10 00:39:26;;;;;;;;;0.00;0.00;;;;;8.39;73.80;99016.78;5016789;28;45876;-74
2021/12/10 00:41:53;;;;;;;;;0.00;0.00;;;;;8.36;73.96;99007.16;5017207;28;45542;-74
2021/12/10 00:44:18;;;;;;;;;0.00;0.00;;;;;8.26;73.83;98973.91;5017026;28;45557;-74
2021/12/10 00:46:43;;;;;;;;;0.00;0.00;;;;;8.44;73.67;98972.88;5016169;28;61595;-74
2021/12/10 00:49:10;;;;;;;;;0.00;0.00;;;;;8.44;73.77;98958.88;5024853;28;62551;-73
2021/12/10 00:51:36;;;;;;;;;1.00;0.00;;;;;8.42;73.88;98948.38;5036198;28;45306;-73
2021/12/10 00:54:04;;;;;;;;;0.00;0.00;;;;;8.40;74.10;98944.88;5027383;28;45341;-73
2021/12/10 00:56:29;;;;;;;;;0.00;0.00;;;;;8.38;74.02;98946.66;5036531;28;46277;-73
2021/12/10 00:58:54;;;;;;;;;0.00;0.00;;;;;8.42;73.92;98921.22;5024144;28;45578;-73
2021/12/10 01:01:23;;;;;;;;;0.00;0.00;;;;;8.38;73.74;98894.06;5013864;28;64084;-74
2021/12/10 01:03:53;;;;;;;;;0.00;0.00;;;;;8.43;74.11;98894.88;5036159;28;45432;-73
2021/12/10 01:06:18;;;;;;;;;0.67;0.67;;;;;8.27;73.96;98838.06;5035410;28;47819;-73
2021/12/10 01:08:47;;;;;;;;;0.00;0.00;;;;;8.39;74.43;98867.75;5036417;28;45320;-73
2021/12/10 01:11:20;;;;;;;;;0.00;0.00;;;;;8.36;74.49;98852.03;5036564;28;45251;-74
2021/12/10 01:13:48;;;;;;;;;0.00;0.00;;;;;8.32;74.92;98868.69;5036318;28;45602;-74
2021/12/10 01:26:57;;;;;;;;;0.00;0.00;;;;;8.18;74.96;98823.25;5016105;28;46517;-73
2021/12/10 01:29:30;;;;;;;;;0.00;0.00;;;;;8.03;75.31;98795.38;5029550;28;45514;-73
2021/12/10 01:31:56;;;;;;;;;0.00;0.00;;;;;8.16;75.16;98821.56;5010016;28;45325;-74
2021/12/10 01:34:21;;;;;;;;;0.00;0.00;;;;;8.19;74.52;98818.88;5016191;28;45543;-73
2021/12/10 01:36:47;;;;;;;;;0.00;0.00;;;;;8.20;74.44;98812.72;5015855;28;46496;-73
2021/12/10 01:39:14;;;;;;;;;0.00;0.00;;;;;8.17;74.91;98805.75;5016098;28;45413;-73
2021/12/10 01:41:42;;;;;;;;;0.00;0.00;;;;;8.17;74.80;98802.25;5035045;28;45365;-73
2021/12/10 01:44:15;;;;;;;;;0.00;0.00;;;;;8.03;74.69;98761.22;5023684;28;45539;-74
2021/12/10 01:46:42;;;;;;;;;0.00;0.00;;;;;7.99;75.09;98779.66;5016003;28;46876;-74
2021/12/10 01:49:08;;;;;;;;;0.67;0.00;;;;;8.14;75.17;98768.97;5024279;28;45294;-74
2021/12/10 01:51:35;;;;;;;;;0.00;0.00;;;;;8.04;74.73;98754.19;5035153;28;45475;-74
2021/12/10 01:54:05;;;;;;;;;0.00;0.00;;;;;8.18;75.03;98780.34;5012618;28;45250;-74
2021/12/10 01:56:31;;;;;;;;;0.00;0.00;;;;;8.23;74.73;98786.41;5016039;28;47274;-74
2021/12/10 01:58:58;;;;;;;;;0.00;0.00;;;;;8.24;74.63;98793.41;5031548;28;45444;-74
2021/12/10 02:01:35;;;;;;;;;0.00;0.00;;;;;8.23;74.95;98797.78;5036635;28;45433;-73
2021/12/10 02:04:02;;;;;;;;;0.00;0.00;;;;;8.26;74.99;98784.63;5019367;28;45465;-73
2021/12/10 02:06:27;;;;;;;;;0.00;0.00;;;;;8.30;74.68;98780.16;5019216;28;47441;-73
2021/12/10 02:08:53;;;;;;;;;1.00;0.00;;;;;8.18;74.67;98749.66;5018426;28;63542;-73
2021/12/10 02:11:18;;;;;;;;;0.00;0.00;;;;;8.36;74.69;98762.63;5017693;28;57718;-73
2021/12/10 02:13:44;;;;;;;;;0.00;0.00;;;;;8.41;74.78;98752.00;5038473;28;45242;-74
2021/12/10 02:16:09;;;;;;;;;0.00;0.00;;;;;8.43;74.97;98749.38;5038760;28;47169;-74
2021/12/10 02:18:35;;;;;;;;;0.00;0.00;;;;;8.33;74.50;98744.19;5035649;28;57111;-74
2021/12/10 02:21:00;;;;;;;;;0.00;0.00;;;;;8.45;74.49;98773.88;5028240;28;45382;-73
2021/12/10 02:23:25;;;;;;;;;0.00;0.00;;;;;8.04;74.57;98692.03;5019001;28;45237;-74
2021/12/10 02:25:51;;;;;;;;;0.00;0.00;;;;;8.48;74.90;98748.41;5032918;28;46631;-74
2021/12/10 02:28:16;;;;;;;;;1.00;0.00;;;;;8.53;74.47;98740.47;5024218;28;45374;-74
2021/12/10 02:30:42;;;;;;;;;1.00;0.00;;;;;8.57;74.51;98734.25;5029517;28;57174;-74
2021/12/10 02:33:07;;;;;;;;;0.00;0.00;;;;;8.59;74.46;98735.97;5019025;28;45281;-73
2021/12/10 02:35:33;;;;;;;;;0.00;0.00;;;;;8.58;74.21;98744.78;5018523;28;46255;-73
2021/12/10 02:37:59;;;;;;;;;0.00;0.00;;;;;8.58;74.48;98736.00;5018760;28;45464;-73
2021/12/10 02:40:25;;;;;;;;;0.00;0.00;;;;;8.34;74.32;98677.56;5024278;28;50212;-74
2021/12/10 02:42:51;;;;;;;;;0.00;0.00;;;;;8.62;74.27;98724.53;5018971;28;45436;-74
2021/12/10 02:45:18;;;;;;;;;0.00;0.00;;;;;8.63;74.33;98708.75;5018702;28;46863;-74
2021/12/10 02:47:45;;;;;;;;;0.00;0.00;;;;;8.65;74.29;98712.22;5018549;28;45218;-74
2021/12/10 02:50:11;;;;;;;;;0.33;0.00;;;;;8.54;74.65;98686.97;5020565;28;45542;-74
2021/12/10 02:52:36;;;;;;;;;0.00;0.00;;;;;8.70;74.62;98712.13;5033478;28;45289;-74
2021/12/10 02:55:03;;;;;;;;;0.00;0.00;;;;;8.67;74.57;98717.44;5023916;28;59557;-74
2021/12/10 02:57:29;;;;;;;;;0.00;0.00;;;;;8.56;74.67;98706.22;5011828;28;45532;-74
2021/12/10 02:59:54;;;;;;;;;0.00;0.00;;;;;8.61;74.32;98680.69;5031178;28;45398;-74
2021/12/10 03:02:22;;;;;;;;;0.00;0.00;;;;;8.73;74.49;98700.69;5028206;28;46219;-74
2021/12/10 03:04:47;;;;;;;;;0.67;0.00;;;;;8.74;74.52;98716.47;5019936;28;46275;-74
2021/12/10 03:07:14;;;;;;;;;0.00;0.00;;;;;8.74;74.55;98711.22;5038129;28;45335;-74
2021/12/10 03:09:44;;;;;;;;;0.00;0.00;;;;;8.74;75.00;98705.06;5026579;28;45361;-73
2021/12/10 03:12:11;;;;;;;;;0.00;0.00;;;;;8.76;75.09;98698.00;5018788;28;45377;-73
2021/12/10 03:14:37;;;;;;;;;0.00;0.00;;;;;8.78;75.35;98704.09;5018257;28;46350;-74
2021/12/10 03:17:06;;;;;;;;;0.00;0.00;;;;;8.80;75.64;98715.50;5018263;28;45281;-74
2021/12/10 03:19:32;;;;;;;;;0.00;0.00;;;;;8.78;75.70;98704.09;5018418;28;45263;-74
2021/12/10 03:21:57;;;;;;;;;0.00;0.00;;;;;8.71;76.19;98689.31;5017551;28;59238;-73
2021/12/10 03:24:24;;;;;;;;;0.00;0.00;;;;;8.84;76.73;98711.91;5017872;28;47250;-74
2021/12/10 03:26:54;;;;;;;;;1.00;0.00;;;;;8.85;76.26;98705.78;5019624;28;45445;-74
2021/12/10 03:29:22;;;;;;;;;0.00;0.00;;;;;8.69;76.20;98683.22;5028516;28;45483;-74
2021/12/10 03:31:48;;;;;;;;;0.00;0.00;;;;;8.68;75.56;98686.72;5020442;28;45227;-74
2021/12/10 03:34:13;;;;;;;;;0.00;0.00;;;;;8.80;75.93;98716.38;5017801;28;47542;-73
2021/12/10 03:36:45;;;;;;;;;0.00;0.00;;;;;8.69;75.96;98688.50;5017478;28;60147;-73
2021/12/10 03:39:11;;;;;;;;;0.00;0.00;;;;;8.71;75.88;98690.19;5023537;28;45344;-74
2021/12/10 03:41:37;;;;;;;;;0.00;0.00;;;;;8.86;76.15;98718.91;5019485;28;45260;-74
2021/12/10 03:44:02;;;;;;;;;0.00;0.00;;;;;8.78;75.63;98698.84;5017538;28;54301;-74
2021/12/10 03:46:28;;;;;;;;;0.00;0.00;;;;;8.85;76.05;98721.56;5016988;28;45417;-73
2021/12/10 03:48:53;;;;;;;;;0.00;0.00;;;;;8.87;75.95;98731.16;5036853;28;58464;-74
2021/12/10 03:51:21;;;;;;;;;0.00;0.00;;;;;8.85;76.67;98719.78;5032404;28;45618;-73
2021/12/10 03:53:47;;;;;;;;;0.00;0.00;;;;;8.91;76.63;98735.47;5037235;28;47305;-74
2021/12/10 03:56:14;;;;;;;;;0.00;0.00;;;;;8.94;76.35;98731.91;5021561;28;45378;-74
2021/12/10 03:58:40;;;;;;;;;1.00;0.00;;;;;8.77;76.54;98703.25;5017879;28;45287;-74
2021/12/10 04:01:06;;;;;;;;;3.00;0.00;;;;;8.90;77.14;98717.97;5017420;28;45448;-73
2021/12/10 04:03:31;;;;;;;;;1.33;1.00;;;;;8.71;77.52;98691.97;5034702;28;46392;-74
2021/12/10 04:05:57;;;;;;;;;1.00;0.00;;;;;8.99;77.86;98740.59;5037167;28;45320;-74
2021/12/10 04:08:22;;;;;;;;;0.67;0.00;;;;;8.87;77.25;98715.38;5037347;28;45279;-74
2021/12/10 04:10:48;;;;;;;;;0.67;0.67;;;;;9.07;77.18;98741.38;5034796;28;45911;-74
2021/12/10 04:13:13;;;;;;;;;1.00;1.00;;;;;8.96;77.43;98714.34;5017141;28;46447;-74
2021/12/10 04:15:39;;;;;;;;;1.00;1.00;;;;;9.13;77.40;98737.75;5029721;28;45499;-74
2021/12/10 04:18:05;;;;;;;;;3.33;0.00;;;;;9.14;77.50;98734.22;5037233;28;45340;-74
2021/12/10 04:20:31;;;;;;;;;0.00;0.00;;;;;9.20;77.31;98736.75;5036430;28;45549;-73
2021/12/10 04:22:58;;;;;;;;;2.67;0.00;;;;;9.10;76.88;98706.22;5036946;28;46392;-74
2021/12/10 04:25:27;;;;;;;;;0.67;0.67;;;;;9.28;77.27;98724.34;5032917;28;45284;-74
2021/12/10 04:27:55;;;;;;;;;2.00;1.00;;;;;9.30;77.24;98733.06;5018268;28;45492;-73
2021/12/10 04:30:20;;;;;;;;;4.00;1.00;;;;;9.34;77.35;98742.66;5034181;28;45403;-73
2021/12/10 04:32:45;;;;;;;;;2.67;2.00;;;;;9.17;77.39;98706.09;5036872;28;47067;-73
2021/12/10 04:35:11;;;;;;;;;4.00;1.00;;;;;9.35;77.20;98739.13;5035854;28;68656;-73
2021/12/10 04:37:36;;;;;;;;;3.33;1.00;;;;;9.25;77.44;98718.25;5036320;28;61454;-74
2021/12/10 04:40:05;;;;;;;;;3.67;0.33;;;;;9.35;77.50;98736.50;5031479;28;45190;-73
2021/12/10 04:42:30;;;;;;;;;5.67;1.00;;;;;9.25;77.39;98720.88;5031814;28;46430;-74
2021/12/10 04:44:57;;;;;;;;;6.00;2.67;;;;;9.39;77.12;98753.97;5034587;28;67113;-74
2021/12/10 04:47:22;;;;;;;;;3.00;1.00;;;;;9.44;77.32;98757.41;5035837;28;45463;-74
2021/12/10 04:49:48;;;;;;;;;3.33;2.00;;;;;9.47;77.42;98748.56;5036173;28;50868;-74
2021/12/10 04:52:13;;;;;;;;;2.00;2.00;;;;;9.52;77.16;98751.97;5036114;28;47838;-74
2021/12/10 04:54:38;;;;;;;;;2.00;1.00;;;;;9.55;77.24;98751.94;5022036;28;45397;-73
2021/12/10 04:57:04;;;;;;;;;2.00;2.00;;;;;9.56;76.95;98753.69;5016657;28;45258;-74
2021/12/10 04:59:30;;;;;;;;;7.67;2.00;;;;;9.56;77.17;98751.03;5016830;28;45497;-74
2021/12/10 05:01:56;;;;;;;;;6.00;2.00;;;;;9.50;76.98;98743.25;5020703;28;46967;-73
2021/12/10 05:04:22;;;;;;;;;6.67;1.00;;;;;9.57;76.86;98754.53;5028277;28;45278;-74
2021/12/10 05:06:48;;;;;;;;;2.67;2.00;;;;;9.52;76.80;98751.97;5021016;28;45147;-73
2021/12/10 05:09:13;;;;;;;;;1.00;1.00;;;;;9.35;76.86;98723.31;5016510;28;45462;-73
2021/12/10 05:11:39;;;;;;;;;7.33;2.00;;;;;9.58;76.79;98766.81;5016446;28;47476;-74
2021/12/10 05:14:05;;;;;;;;;4.00;2.00;;;;;9.20;76.45;98707.78;5021120;28;45194;-74
2021/12/10 05:16:31;;;;;;;;;6.33;2.00;;;;;9.64;76.52;98779.88;5030067;28;45304;-74
2021/12/10 05:18:59;;;;;;;;;5.33;2.00;;;;;9.65;76.67;98790.41;5016554;28;45333;-74
2021/12/10 05:21:28;;;;;;;;;6.00;1.67;;;;;9.66;76.42;98786.88;5032127;28;46546;-73
2021/12/10 05:23:54;;;;;;;;;2.00;1.00;;;;;9.65;76.73;98786.91;5035433;28;45539;-73
2021/12/10 05:26:19;;;;;;;;;13.00;1.33;;;;;9.66;76.57;98813.22;5023576;28;62143;-74
2021/12/10 05:28:45;;;;;;;;;8.00;1.67;;;;;9.58;76.46;98788.75;5025799;28;45472;-73
2021/12/10 05:31:10;;;;;;;;;6.00;1.00;;;;;9.67;75.99;98814.94;5024318;28;46802;-73
2021/12/10 05:33:36;;;;;;;;;4.67;1.00;;;;;9.67;76.12;98816.72;5024944;28;64763;-73
2021/12/10 05:36:02;;;;;;;;;1.00;1.00;;;;;9.67;76.04;98828.13;5030805;28;51431;-73
2021/12/10 05:38:27;;;;;;;;;12.67;1.00;;;;;9.67;76.05;98825.50;5028956;28;45430;-74
2021/12/10 05:40:53;;;;;;;;;1.33;1.00;;;;;9.56;75.95;98821.31;5035463;28;46280;-73
2021/12/10 05:43:19;;;;;;;;;1.67;1.00;;;;;9.58;75.62;98819.50;5030809;28;45482;-74
2021/12/10 05:45:45;;;;;;;;;4.67;1.00;;;;;9.70;75.55;98840.41;5038068;28;45426;-73
2021/12/10 05:48:10;;;;;;;;;0.00;0.00;;;;;9.67;75.52;98838.66;5030385;28;45655;-72
2021/12/10 05:50:36;;;;;;;;;6.00;1.00;;;;;9.67;75.43;98840.44;5028416;28;65294;-75
2021/12/10 05:53:03;;;;;;;;;4.00;1.00;;;;;9.57;75.72;98825.69;5029032;28;45246;-76
2021/12/10 05:55:29;;;;;;;;;0.00;0.00;;;;;9.56;75.51;98823.94;5031154;28;45456;-74
2021/12/10 05:57:54;;;;;;;;;2.67;0.33;;;;;9.23;75.58;98781.47;5028649;28;45428;-74
2021/12/10 06:00:26;;;;;;;;;2.67;1.00;;;;;9.66;75.75;98849.25;5032947;28;46430;-73
2021/12/10 06:02:51;;;;;;;;;6.67;1.00;;;;;9.67;75.42;98853.59;5023519;28;45570;-74
2021/12/10 06:05:17;;;;;;;;;7.67;1.00;;;;;9.51;75.51;98845.09;5029729;28;45438;-73
2021/12/10 06:07:42;;;;;;;;;4.00;1.00;;;;;9.61;75.52;98865.13;5032442;28;45548;-75
2021/12/10 06:10:09;;;;;;;;;2.00;1.00;;;;;9.61;75.44;98901.16;5028746;28;46441;-74
2021/12/10 06:12:34;;;;;;;;;4.00;0.00;;;;;9.58;75.29;98869.56;5031819;28;45494;-74
2021/12/10 06:15:00;;;;;;;;;6.67;1.00;;;;;9.57;75.57;98870.47;5032075;28;45531;-73
2021/12/10 06:17:25;;;;;;;;;5.67;1.00;;;;;9.54;75.61;98884.56;5027624;28;45400;-73
2021/12/10 06:19:50;;;;;;;;;5.33;1.67;;;;;9.57;75.77;98879.22;5027989;28;46378;-74
2021/12/10 06:22:16;;;;;;;;;5.67;1.00;;;;;9.48;75.38;98875.88;5033201;28;63873;-73
2021/12/10 06:24:41;;;;;;;;;4.67;0.00;;;;;9.60;75.47;98896.78;5028561;28;53687;-73
2021/12/10 06:27:07;;;;;;;;;5.00;1.67;;;;;9.57;75.77;98902.09;5011565;28;56018;-73
2021/12/10 06:29:32;;;;;;;;;2.00;1.00;;;;;9.34;76.95;98899.81;5029408;28;66660;-72
2021/12/10 06:31:57;;;;;;;;;6.00;1.00;;;;;9.23;77.15;98914.91;5028967;28;45463;-73
2021/12/10 06:34:24;;;;;;;;;2.00;0.67;;;;;9.18;77.89;98904.44;5025449;28;59074;-73
2021/12/10 06:36:51;;;;;;;;;3.00;1.00;;;;;9.10;78.66;98922.09;5023068;28;45593;-74
2021/12/10 06:39:20;;;;;;;;;2.67;2.00;;;;;9.00;78.55;98915.19;5274229;22;46354;-77
2021/12/10 06:41:52;;;;;;;;;2.67;0.00;;;;;8.87;79.47;98918.00;4988318;28;45682;-77
2021/12/10 06:44:18;;;;;;;;;0.67;0.67;;;;;8.89;80.26;98917.97;4992773;28;45688;-78
2021/12/10 06:46:44;;;;;;;;;6.33;1.00;;;;;8.89;78.60;98934.66;4986286;28;45649;-73
2021/12/10 06:49:10;;;;;;;;;2.67;1.00;;;;;8.91;78.60;98946.03;5014114;28;45852;-73
2021/12/10 06:51:35;;;;;;;;;7.00;1.00;;;;;8.98;78.01;98959.13;4995574;28;45323;-73
2021/12/10 06:54:01;;;;;;;;;3.33;1.33;;;;;8.97;78.29;98941.59;5024599;28;45446;-73
2021/12/10 06:56:28;;;;;;;;;3.33;1.00;;;;;8.90;77.76;98960.09;5024951;28;45769;-73
2021/12/10 06:58:54;;;;;;;;;2.00;1.00;;;;;8.91;77.79;98950.44;5020769;28;46973;-73
2021/12/10 07:01:25;;;;;;;;;1.67;1.00;;;;;8.97;77.98;98994.22;5032796;28;45475;-73
2021/12/10 07:03:51;;;;;;;;;1.33;0.00;;;;;9.03;77.61;98994.16;5022043;28;45272;-73
2021/12/10 07:06:17;;;;;;;;;6.00;2.00;;;;;8.95;77.80;98978.47;5023563;28;45518;-73
2021/12/10 07:08:43;;;;;;;;;1.00;0.00;;;;;9.07;77.79;99001.13;5023801;28;45444;-73
2021/12/10 07:11:10;;;;;;;;;2.00;0.00;;;;;9.08;77.54;99013.41;5002635;28;45535;-74
2021/12/10 07:13:36;;;;;;;;;2.00;0.00;;;;;9.06;77.47;99009.91;5029327;28;45563;-73
2021/12/10 07:16:02;;;;;;;;;1.67;0.00;;;;;9.08;77.08;99031.81;5026507;28;45369;-73
2021/12/10 07:18:27;;;;;;;;;6.67;1.00;;;;;9.01;76.95;99022.25;5023823;28;46336;-73
2021/12/10 07:20:53;;;;;;;;;2.33;0.00;;;;;9.05;76.80;99048.50;5007278;28;58391;-73
2021/12/10 07:23:20;;;;;;;;;2.00;0.00;;;;;9.08;76.64;99055.50;5027315;28;45487;-73
2021/12/10 07:25:47;;;;;;;;;1.00;0.00;;;;;9.08;76.27;99064.28;5026882;28;47007;-73
2021/12/10 07:28:13;;;;;;;;;0.00;0.00;;;;;9.07;76.03;99064.31;5016943;28;46795;-73
2021/12/10 07:30:38;;;;;;;;;2.33;1.00;;;;;8.98;76.02;99054.75;4998842;28;45499;-73
2021/12/10 07:33:04;;;;;;;;;0.00;0.00;;;;;9.01;75.99;99070.50;5030915;28;45528;-73
2021/12/10 07:35:30;;;;;;;;;0.00;0.00;;;;;9.04;75.28;99078.38;5032277;28;45590;-73
2021/12/10 07:37:55;;;;;;;;;1.00;0.00;;;;;8.88;75.74;99075.03;5028002;28;66710;-73
2021/12/10 07:40:25;;;;;;;;;1.67;1.00;;;;;8.93;75.07;99110.06;5015125;28;63254;-73
2021/12/10 07:42:50;;;;;;;;;2.33;1.33;;;;;8.89;74.96;99096.94;4979344;28;45374;-73
2021/12/10 07:45:16;;;;;;;;;2.00;0.33;;;;;8.87;75.20;99099.59;4988522;28;54549;-73
2021/12/10 07:47:41;;;;;;;;;3.00;1.00;;;;;8.80;75.28;99105.81;5008762;28;46583;-73
2021/12/10 07:50:11;;;;;;;;;3.00;0.00;;;;;8.87;75.16;99120.66;5003629;28;45751;-73
2021/12/10 07:52:41;;;;;;;;;2.00;0.00;;;;;8.82;74.75;99097.91;4994702;28;45508;-73
2021/12/10 07:55:09;;;;;;;;;1.00;0.00;;;;;8.90;74.90;99120.63;4994296;28;45610;-73
2021/12/10 07:57:35;;;;;;;;;1.67;0.00;;;;;8.89;73.44;99124.16;4991639;28;47457;-73
2021/12/10 08:00:00;;;;;;;;;1.00;0.00;;;;;8.85;73.76;99132.97;5012963;28;45285;-73
2021/12/10 08:02:27;;;;;;;;;0.00;0.00;;;;;8.85;73.42;99146.13;4988427;28;45618;-73
2021/12/10 08:04:52;;;;;;;;;0.33;0.00;;;;;8.85;73.34;99142.63;5003316;28;45584;-73
2021/12/10 08:07:18;;;;;;;;;0.00;0.00;;;;;8.81;73.20;99144.41;4997172;28;45594;-73
2021/12/10 08:09:43;;;;;;;;;0.00;0.00;;;;;8.88;73.43;99153.97;4998549;28;45664;-73
2021/12/10 08:12:09;;;;;;;;;1.00;1.00;;;;;8.75;73.28;99122.53;5007677;28;57305;-74
2021/12/10 08:14:35;;;;;;;;;0.00;0.00;;;;;8.91;73.40;99179.41;5005164;28;45520;-73
2021/12/10 08:17:00;;;;;;;;;1.00;0.00;;;;;8.86;72.06;99175.94;4997861;28;45570;-74
2021/12/10 08:19:25;;;;;;;;;2.00;0.00;;;;;8.59;72.57;99145.47;5006453;28;45539;-73
2021/12/10 08:21:51;;;;;;;;;2.00;0.67;;;;;8.83;72.70;99194.38;5011962;28;45690;-73
2021/12/10 08:24:16;;;;;;;;;0.00;0.00;;;;;8.82;71.75;99201.41;4986382;28;45432;-73
2021/12/10 08:26:42;;;;;;;;;1.00;0.00;;;;;8.83;72.24;99208.41;5009873;28;46087;-75
2021/12/10 08:29:08;;;;;;;;;1.67;0.00;;;;;8.71;71.36;99198.00;5010334;28;61490;-75
2021/12/10 08:31:33;;;;;;;;;3.00;0.00;;;;;8.78;70.89;99215.47;5009066;28;45579;-76
2021/12/10 08:33:59;;;;;;;;;2.00;1.00;;;;;8.78;71.26;99219.88;5003892;28;45596;-75
2021/12/10 08:36:24;;;;;;;;;1.00;0.00;;;;;8.66;70.67;99210.31;5007424;28;46767;-75
2021/12/10 08:38:50;;;;;;;;;2.00;2.00;;;;;8.73;70.92;99240.94;5007843;28;45463;-74
2021/12/10 08:41:18;;;;;;;;;0.00;0.00;;;;;8.72;70.53;99243.59;5015922;28;45451;-74
2021/12/10 08:43:43;;;;;;;;;1.00;0.00;;;;;8.58;70.24;99228.78;5010149;28;45276;-74
2021/12/10 08:46:09;;;;;;;;;1.00;0.00;;;;;8.66;70.16;99247.16;5013943;28;66022;-74
2021/12/10 08:48:35;;;;;;;;;0.00;0.00;;;;;8.46;69.95;99227.97;5019953;28;45493;-74
2021/12/10 08:51:03;;;;;;;;;1.00;0.00;;;;;8.59;70.18;99263.88;5028438;28;45483;-74
2021/12/10 08:53:28;;;;;;;;;3.67;0.00;;;;;8.53;70.41;99262.16;5026856;28;45455;-73
2021/12/10 08:55:55;;;;;;;;;2.33;0.00;;;;;8.50;70.48;99269.16;5027437;28;55657;-73
2021/12/10 08:58:20;;;;;;;;;1.00;0.00;;;;;8.35;70.58;99256.94;5028266;28;45553;-74
2021/12/10 09:00:52;;;;;;;;;0.67;0.00;;;;;8.28;70.52;99269.25;5029097;28;51211;-74
2021/12/10 09:03:18;;;;;;;;;1.00;1.00;;;;;8.36;70.63;99278.03;5028491;28;45581;-74
2021/12/10 09:05:43;;;;;;;;;1.33;0.00;;;;;8.36;70.56;99280.66;5030661;28;66229;-74
2021/12/10 09:08:09;;;;;;;;;2.33;0.33;;;;;8.34;71.09;99281.50;5033121;28;62440;-75
2021/12/10 09:10:37;;;;;;;;;3.00;0.00;;;;;8.35;70.95;99280.59;5028784;28;45589;-74
2021/12/10 09:13:09;;;;;;;;;0.00;0.00;;;;;8.36;70.83;99275.41;5042169;28;45429;-74
2021/12/10 09:15:34;;;;;;;;;2.00;0.33;;;;;8.43;71.06;99288.50;5017803;28;46636;-73
2021/12/10 09:18:00;;;;;;;;;2.00;0.33;;;;;8.58;71.05;99307.72;5026553;28;59705;-74
2021/12/10 09:20:32;;;;;;;;;0.00;0.00;;;;;8.61;71.22;99296.28;5028381;28;51573;-74
2021/12/10 09:22:58;;;;;;;;;2.00;0.00;;;;;8.72;70.88;99310.25;5030284;28;45507;-74
2021/12/10 09:25:23;;;;;;;;;2.00;1.00;;;;;8.74;71.12;99324.28;5032015;28;47610;-74
2021/12/10 09:27:49;;;;;;;;;4.33;0.00;;;;;8.74;70.85;99332.19;5032886;28;65968;-74
2021/12/10 09:30:15;;;;;;;;;1.00;1.00;;;;;8.77;70.91;99316.38;5033614;28;45585;-74
2021/12/10 09:32:40;;;;;;;;;1.00;1.00;;;;;8.84;70.99;99340.88;5024634;28;45491;-74
2021/12/10 09:35:07;;;;;;;;;2.33;1.33;;;;;8.78;70.43;99331.25;5026289;28;46444;-74
2021/12/10 09:37:33;;;;;;;;;7.00;1.67;;;;;8.85;70.28;99340.88;5023862;28;46648;-74
2021/12/10 09:39:59;;;;;;;;;3.00;1.67;;;;;8.89;70.30;99342.63;5016826;28;45692;-74
2021/12/10 09:42:25;;;;;;;;;2.00;2.00;;;;;8.81;70.04;99349.69;5031962;28;45843;-74
2021/12/10 09:44:52;;;;;;;;;8.33;1.00;;;;;8.87;70.23;99370.69;5008024;28;47552;-73
2021/12/10 09:47:18;;;;;;;;;3.00;2.00;;;;;8.82;70.34;99363.72;4977728;28;45516;-74
2021/12/10 09:49:48;;;;;;;;;5.00;2.00;;;;;8.71;70.44;99345.34;5017073;28;45391;-74
2021/12/10 09:52:16;;;;;;;;;3.00;2.00;;;;;8.76;70.27;99361.13;5012713;28;45523;-74
2021/12/10 09:54:41;;;;;;;;;4.33;1.00;;;;;8.84;70.88;99372.47;5031271;28;46830;-74
2021/12/10 09:57:10;;;;;;;;;1.00;1.00;;;;;8.92;70.36;99384.72;5010592;28;45492;-75
2021/12/10 09:59:36;;;;;;;;;3.00;2.00;;;;;9.02;70.22;99403.09;5013908;28;45582;-75
2021/12/10 10:02:02;;;;;;;;;3.00;0.00;;;;;9.04;69.85;99378.50;5032263;28;45493;-75
2021/12/10 10:04:28;;;;;;;;;1.00;1.00;;;;;9.17;70.28;99389.84;5028589;28;45503;-75
2021/12/10 10:06:59;;;;;;;;;1.00;1.00;;;;;9.26;68.92;99394.16;4987342;28;45535;-75
2021/12/10 10:09:25;;;;;;;;;5.33;2.00;;;;;9.35;69.40;99423.94;5019999;28;45388;-75
2021/12/10 10:12:00;;;;;;;;;5.00;1.00;;;;;9.34;69.01;99411.66;5035981;28;45347;-75
2021/12/10 10:14:25;;;;;;;;;2.67;1.00;;;;;9.21;69.34;99398.56;5020769;28;46163;-75
2021/12/10 10:16:51;;;;;;;;;3.67;0.33;;;;;9.26;69.42;99407.31;5010900;28;45522;-75
2021/12/10 10:19:16;;;;;;;;;1.00;1.00;;;;;9.24;69.57;99412.59;5031949;28;45463;-75
2021/12/10 10:21:48;;;;;;;;;4.00;2.00;;;;;9.19;69.75;99412.63;5003551;28;45614;-75
2021/12/10 10:24:14;;;;;;;;;5.33;1.00;;;;;9.12;69.53;99420.59;5017406;28;48447;-75
2021/12/10 10:27:07;;;;;;;;;2.67;2.00;;;;;8.99;69.79;99406.59;5016975;28;45570;-75
2021/12/10 10:29:34;;;;;;;;;6.00;1.00;;;;;9.07;68.99;99435.53;5036419;28;45515;-75
2021/12/10 10:32:08;;;;;;;;;3.33;1.33;;;;;9.00;68.68;99431.16;5028500;28;45479;-75
2021/12/10 10:34:33;;;;;;;;;2.33;0.00;;;;;9.07;68.73;99438.16;5036655;28;47821;-75
2021/12/10 10:36:59;;;;;;;;;6.00;2.00;;;;;9.09;68.70;99449.56;5019924;28;45379;-75
2021/12/10 10:39:26;;;;;;;;;6.00;2.00;;;;;9.03;68.45;99428.53;5016419;28;55731;-75
2021/12/10 10:41:54;;;;;;;;;6.00;3.00;;;;;9.13;68.29;99462.69;5020313;28;45584;-74
2021/12/10 10:44:19;;;;;;;;;7.00;3.00;;;;;9.12;67.18;99434.63;5037760;28;45531;-75
2021/12/10 10:46:45;;;;;;;;;4.00;1.00;;;;;9.23;67.68;99457.41;5018110;28;45428;-75
2021/12/10 10:49:31;;;;;;;;;3.00;1.33;;;;;9.30;67.04;99457.34;5029572;28;45319;-74
2021/12/10 10:51:57;;;;;;;;;12.00;3.00;;;;;9.39;66.70;99464.31;5031774;28;45337;-75
2021/12/10 10:54:22;;;;;;;;;3.00;2.00;;;;;9.35;65.48;99449.41;5036988;28;64508;-74
2021/12/10 10:56:48;;;;;;;;;5.33;1.00;;;;;9.33;64.27;99467.00;5001311;28;62520;-75
2021/12/10 10:59:24;;;;;;;;;0.33;0.33;;;;;9.36;64.82;99470.47;5028003;28;45534;-74
2021/12/10 11:01:58;;;;;;;;;2.00;2.00;;;;;9.29;65.17;99465.25;5019430;28;45538;-75
2021/12/10 11:04:32;;;;;;;;;3.00;2.33;;;;;9.32;63.50;99481.03;5033846;28;45843;-75
2021/12/10 11:07:20;;;;;;;;;2.33;1.00;;;;;9.38;64.60;99495.06;5036587;28;45249;-74
2021/12/10 11:10:04;;;;;;;;;4.00;1.00;;;;;9.40;64.94;99506.44;5023277;28;45466;-75
2021/12/10 11:12:38;;;;;;;;;2.00;1.00;;;;;9.42;64.52;99494.13;5037231;28;45174;-74
2021/12/10 11:15:14;;;;;;;;;1.67;1.00;;;;;9.43;64.57;99492.41;5036716;28;46820;-74
2021/12/10 11:17:46;;;;;;;;;6.00;1.00;;;;;9.33;63.69;99483.66;5037376;28;45309;-74
2021/12/10 11:20:31;;;;;;;;;1.00;0.00;;;;;9.53;63.82;99495.81;5035849;28;45485;-75
2021/12/10 11:22:59;;;;;;;;;2.67;1.00;;;;;9.51;63.26;99490.56;5013120;28;45598;-75
2021/12/10 11:25:31;;;;;;;;;3.00;1.67;;;;;9.60;62.20;99501.06;4998590;28;45854;-75
2021/12/10 11:28:06;;;;;;;;;1.67;0.67;;;;;9.74;62.56;99500.09;5033660;28;45384;-75
2021/12/10 11:30:32;;;;;;;;;10.33;1.67;;;;;9.89;60.92;99513.16;5013507;28;45581;-76
2021/12/10 11:33:09;;;;;;;;;3.00;1.00;;;;;9.87;62.43;99517.59;5025449;28;45957;-75
2021/12/10 11:35:37;;;;;;;;;1.00;1.00;;;;;10.04;62.41;99528.00;5025336;28;46744;-75
2021/12/10 11:38:09;;;;;;;;;3.00;2.00;;;;;10.15;60.29;99526.16;5018788;28;45319;-74
2021/12/10 11:40:39;;;;;;;;;4.33;3.00;;;;;10.16;60.63;99531.41;5025037;28;45231;-75
2021/12/10 11:43:18;;;;;;;;;3.00;2.00;;;;;10.17;59.22;99519.06;5037243;28;45317;-75
2021/12/10 11:45:51;;;;;;;;;1.67;1.33;;;;;10.18;60.06;99529.63;5021826;28;46509;-74
2021/12/10 11:48:24;;;;;;;;;3.00;1.33;;;;;10.22;58.48;99527.84;4993691;28;45590;-74
2021/12/10 11:51:12;;;;;;;;;2.00;0.00;;;;;10.31;60.50;99543.63;5021234;28;45343;-75
2021/12/10 11:53:52;;;;;;;;;6.00;6.00;;;;;10.32;59.84;99545.38;5021092;28;45443;-75